createdAt,value
2023-02-28T00:00:19.178Z,83.50
2023-02-28T00:02:49.804Z,83.20
2023-02-28T00:05:28.785Z,82.60
2023-02-28T00:07:56.865Z,82.80
2023-02-28T00:10:29.892Z,82.80
2023-02-28T00:13:03.742Z,82.90
2023-02-28T00:15:35.131Z,83.10
2023-02-28T00:18:07.438Z,82.80
2023-02-28T00:20:40.333Z,83.20
2023-02-28T00:23:12.270Z,83.60
2023-02-28T00:25:42.798Z,82.90
2023-02-28T00:28:11.468Z,82.90
2023-02-28T00:30:46.477Z,82.50
2023-02-28T00:33:23.263Z,82.80
2023-02-28T00:36:13.397Z,83.00
2023-02-28T00:38:48.307Z,82.80
2023-02-28T00:41:21.628Z,82.90
2023-02-28T00:43:49.295Z,82.50
2023-02-28T00:46:24.259Z,82.80
2023-02-28T00:49:01.073Z,82.90
2023-02-28T00:51:31.954Z,82.70
2023-02-28T00:54:00.806Z,82.70
2023-02-28T00:56:31.701Z,82.90
2023-02-28T00:59:02.352Z,83.20
2023-02-28T01:01:32.848Z,83.30
2023-02-28T01:04:07.597Z,83.60
2023-02-28T01:06:39.171Z,83.60
2023-02-28T01:09:09.353Z,83.90
2023-02-28T01:11:39.537Z,84.00
2023-02-28T01:14:10.335Z,84.20
2023-02-28T01:16:46.634Z,84.70
2023-02-28T01:19:17.952Z,84.80
2023-02-28T01:21:54.892Z,85.10
2023-02-28T01:24:32.080Z,85.30
2023-02-28T01:27:04.026Z,85.10
2023-02-28T01:29:36.646Z,85.30
2023-02-28T01:32:12.583Z,85.30
2023-02-28T01:34:43.381Z,85.30
2023-02-28T01:37:20.403Z,85.70
2023-02-28T01:39:53.933Z,85.80
2023-02-28T01:42:27.111Z,85.70
2023-02-28T01:45:37.285Z,85.80
2023-02-28T01:48:14.560Z,86.20
2023-02-28T01:50:58.704Z,86.30
2023-02-28T01:53:47.176Z,86.50
2023-02-28T01:56:22.304Z,86.40
2023-02-28T01:58:53.389Z,86.80
2023-02-28T02:01:24.620Z,86.80
2023-02-28T02:04:02.604Z,86.20
2023-02-28T02:06:37.319Z,86.00
2023-02-28T02:09:19.010Z,86.00
2023-02-28T02:11:50.284Z,86.30
2023-02-28T02:14:47.674Z,86.10
2023-02-28T02:17:30.055Z,86.20
2023-02-28T02:20:22.967Z,86.20
2023-02-28T02:23:35.668Z,86.20
2023-02-28T02:26:41.064Z,85.80
2023-02-28T02:29:19.172Z,85.10
2023-02-28T02:31:56.794Z,85.10
2023-02-28T02:34:31.059Z,85.10
2023-02-28T02:37:15.368Z,85.30
2023-02-28T02:40:09.558Z,85.00
2023-02-28T02:43:13.117Z,84.50
2023-02-28T02:45:55.580Z,84.50
2023-02-28T02:48:33.478Z,84.20
2023-02-28T02:51:15.168Z,84.30
2023-02-28T02:53:52.423Z,84.20
2023-02-28T02:56:24.625Z,83.90
2023-02-28T02:58:59.953Z,83.60
2023-02-28T03:01:33.559Z,83.90
2023-02-28T03:04:10.685Z,84.00
2023-02-28T03:06:39.937Z,84.90
2023-02-28T03:09:14.646Z,84.60
2023-02-28T03:11:46.745Z,83.70
2023-02-28T03:14:49.730Z,85.00
2023-02-28T03:17:41.550Z,84.20
2023-02-28T03:20:23.006Z,84.10
2023-02-28T03:23:11.693Z,84.30
2023-02-28T03:26:02.928Z,84.00
2023-02-28T03:28:55.380Z,83.80
2023-02-28T03:31:41.751Z,83.70
2023-02-28T03:34:19.927Z,84.20
2023-02-28T03:36:59.933Z,84.30
2023-02-28T03:39:35.281Z,84.70
2023-02-28T03:42:27.018Z,84.30
2023-02-28T03:45:09.182Z,84.50
2023-02-28T03:47:52.291Z,83.90
2023-02-28T03:50:37.876Z,84.10
2023-02-28T03:53:25.188Z,84.00
2023-02-28T03:56:28.700Z,84.10
2023-02-28T03:59:25.678Z,84.10
2023-02-28T04:02:01.689Z,84.50
2023-02-28T04:04:37.079Z,84.50
2023-02-28T04:07:14.062Z,84.90
2023-02-28T04:09:52.484Z,84.80
2023-02-28T04:12:20.439Z,85.20
2023-02-28T04:14:51.299Z,85.20
2023-02-28T04:17:25.975Z,85.30
2023-02-28T04:19:59.228Z,84.60
2023-02-28T04:22:40.307Z,85.00
2023-02-28T04:25:14.919Z,85.30
2023-02-28T04:27:45.432Z,85.20
2023-02-28T04:30:21.731Z,85.50
2023-02-28T04:32:51.519Z,86.10
2023-02-28T04:35:24.503Z,86.00
2023-02-28T04:37:52.552Z,85.80
2023-02-28T04:40:23.124Z,86.30
2023-02-28T04:42:52.003Z,86.70
2023-02-28T04:45:21.527Z,87.20
2023-02-28T04:47:53.002Z,87.00
2023-02-28T04:50:23.354Z,86.40
2023-02-28T04:52:51.054Z,86.20
2023-02-28T04:55:18.814Z,85.60
2023-02-28T04:57:46.545Z,85.90
2023-02-28T05:00:18.210Z,85.80
2023-02-28T05:02:46.292Z,86.10
2023-02-28T05:05:19.426Z,87.00
2023-02-28T05:07:51.382Z,86.10
2023-02-28T05:10:23.154Z,86.40
2023-02-28T05:12:54.850Z,86.50
2023-02-28T05:15:23.235Z,86.30
2023-02-28T05:17:51.296Z,86.20
2023-02-28T05:20:19.071Z,85.90
2023-02-28T05:22:46.731Z,85.90
2023-02-28T05:25:25.548Z,85.60
2023-02-28T05:27:54.028Z,85.10
2023-02-28T05:30:22.541Z,84.70
2023-02-28T05:32:55.234Z,84.90
2023-02-28T05:35:33.020Z,85.30
2023-02-28T05:38:01.118Z,85.30
2023-02-28T05:40:31.819Z,85.20
2023-02-28T05:42:59.457Z,85.20
2023-02-28T05:45:31.550Z,85.70
2023-02-28T05:48:00.005Z,85.80
2023-02-28T05:50:34.698Z,85.80
2023-02-28T05:53:02.298Z,85.60
2023-02-28T05:55:30.998Z,85.90
2023-02-28T05:58:07.004Z,86.10
2023-02-28T06:00:48.010Z,85.90
2023-02-28T06:03:25.650Z,86.00
2023-02-28T06:05:56.250Z,86.20
2023-02-28T06:08:24.115Z,86.30
2023-02-28T06:10:54.617Z,86.00
2023-02-28T06:13:22.824Z,86.20
2023-02-28T06:16:01.885Z,86.20
2023-02-28T06:18:37.206Z,86.30
2023-02-28T06:21:12.321Z,86.50
2023-02-28T06:23:43.269Z,86.50
2023-02-28T06:26:13.087Z,86.50
2023-02-28T06:28:43.904Z,86.20
2023-02-28T06:31:17.575Z,86.50
2023-02-28T06:33:53.643Z,86.20
2023-02-28T06:36:21.382Z,86.50
2023-02-28T06:38:52.696Z,86.30
2023-02-28T06:41:31.372Z,86.50
2023-02-28T06:44:02.184Z,86.60
2023-02-28T06:46:33.042Z,86.00
2023-02-28T06:49:13.906Z,85.80
2023-02-28T06:51:49.426Z,84.40
2023-02-28T06:54:17.083Z,81.70
2023-02-28T06:56:44.997Z,79.40
2023-02-28T06:59:18.769Z,77.70
2023-02-28T07:01:46.447Z,76.00
2023-02-28T07:04:17.657Z,74.90
2023-02-28T07:06:45.333Z,74.60
2023-02-28T07:09:13.019Z,74.70
2023-02-28T07:11:50.158Z,73.90
2023-02-28T07:14:17.926Z,74.90
2023-02-28T07:16:46.928Z,75.70
2023-02-28T07:19:19.570Z,75.90
2023-02-28T07:21:50.359Z,75.40
2023-02-28T07:24:20.661Z,76.00
2023-02-28T07:26:59.282Z,75.90
2023-02-28T07:29:31.322Z,76.40
2023-02-28T07:32:01.597Z,76.60
2023-02-28T07:34:30.221Z,77.80
2023-02-28T07:37:04.511Z,79.30
2023-02-28T07:39:32.031Z,80.00
2023-02-28T07:42:08.633Z,78.10
2023-02-28T07:45:03.109Z,78.20
2023-02-28T07:47:35.552Z,78.00
2023-02-28T07:50:09.482Z,77.40
2023-02-28T07:53:06.508Z,78.20
2023-02-28T07:56:29.360Z,77.80
2023-02-28T07:59:22.552Z,77.40
2023-02-28T08:01:51.788Z,77.30
2023-02-28T08:04:28.418Z,77.50
2023-02-28T08:06:57.914Z,77.10
2023-02-28T08:09:31.072Z,76.70
2023-02-28T08:12:05.145Z,77.00
2023-02-28T08:14:37.930Z,76.40
2023-02-28T08:17:15.740Z,76.10
2023-02-28T08:19:44.597Z,76.50
2023-02-28T08:22:13.371Z,75.60
2023-02-28T08:24:45.371Z,75.10
2023-02-28T08:27:18.798Z,76.00
2023-02-28T08:29:56.343Z,76.00
2023-02-28T08:32:29.919Z,75.40
2023-02-28T08:35:02.977Z,74.50
2023-02-28T08:37:43.908Z,74.00
2023-02-28T08:40:21.009Z,74.50
2023-02-28T08:42:56.551Z,73.30
2023-02-28T08:45:34.487Z,73.90
2023-02-28T08:48:05.669Z,72.90
2023-02-28T08:50:36.697Z,73.60
2023-02-28T08:53:07.809Z,73.10
2023-02-28T08:55:39.758Z,73.00
2023-02-28T08:58:11.004Z,74.20
2023-02-28T09:00:43.676Z,74.00
2023-02-28T09:03:16.837Z,74.30
2023-02-28T09:06:01.204Z,73.60
2023-02-28T09:08:36.512Z,73.80
2023-02-28T09:11:06.679Z,74.50
2023-02-28T09:13:53.659Z,73.70
2023-02-28T09:16:35.210Z,74.30
2023-02-28T09:19:07.854Z,75.20
2023-02-28T09:21:38.853Z,75.00
2023-02-28T09:24:09.833Z,74.00
2023-02-28T09:26:43.445Z,72.10
2023-02-28T09:29:22.278Z,71.80
2023-02-28T09:32:02.671Z,71.40
2023-02-28T09:34:42.088Z,71.10
2023-02-28T09:37:13.377Z,70.60
2023-02-28T09:39:41.148Z,71.50
2023-02-28T09:42:22.333Z,71.80
2023-02-28T09:44:51.537Z,70.30
2023-02-28T09:47:46.223Z,70.50
2023-02-28T09:50:46.182Z,71.40
2023-02-28T09:53:40.159Z,71.50
2023-02-28T09:56:25.065Z,70.90
2023-02-28T09:59:01.754Z,71.90
2023-02-28T10:02:17.338Z,69.20
2023-02-28T10:04:56.240Z,70.60
2023-02-28T10:07:49.482Z,69.20
2023-02-28T10:10:53.680Z,70.10
2023-02-28T10:13:31.197Z,69.20
2023-02-28T10:16:14.557Z,69.20
2023-02-28T10:18:50.081Z,69.10
2023-02-28T10:21:35.281Z,69.10
2023-02-28T10:24:32.169Z,69.00
2023-02-28T10:27:21.629Z,68.00
2023-02-28T10:29:59.517Z,69.10
2023-02-28T10:32:52.423Z,69.70
2023-02-28T10:35:22.215Z,67.70
2023-02-28T10:37:55.702Z,66.30
2023-02-28T10:40:24.400Z,66.80
2023-02-28T10:43:08.966Z,67.50
2023-02-28T10:45:38.652Z,68.30
2023-02-28T10:48:15.679Z,68.00
2023-02-28T10:50:50.999Z,67.50
2023-02-28T10:53:59.294Z,67.10
2023-02-28T10:56:29.830Z,66.20
2023-02-28T10:59:16.364Z,66.20
2023-02-28T11:01:58.213Z,66.30
2023-02-28T11:04:45.532Z,66.60
2023-02-28T11:07:27.644Z,65.80
2023-02-28T11:10:03.400Z,66.70
2023-02-28T11:12:53.348Z,68.00
2023-02-28T11:15:28.845Z,67.60
2023-02-28T11:18:50.081Z,69.20
2023-02-28T11:21:41.392Z,65.30
2023-02-28T11:24:30.967Z,62.30
2023-02-28T11:46:10.393Z,57.90
2023-02-28T11:48:50.971Z,55.30
2023-02-28T11:51:29.957Z,49.20
2023-02-28T11:54:26.478Z,45.30
2023-02-28T11:57:34.994Z,43.70
2023-02-28T12:00:37.057Z,42.30
2023-02-28T12:04:16.130Z,40.60
2023-02-28T12:07:19.215Z,38.40
2023-02-28T12:10:08.705Z,37.90
2023-02-28T12:12:59.810Z,37.70
2023-02-28T12:16:02.167Z,36.90
2023-02-28T12:18:49.633Z,35.40
2023-02-28T12:25:24.747Z,31.10
2023-02-28T12:28:01.578Z,32.10
2023-02-28T12:38:27.452Z,31.00
2023-02-28T12:44:05.546Z,31.80
2023-02-28T12:47:20.847Z,33.40
2023-02-28T12:50:21.865Z,35.30
2023-02-28T12:53:59.075Z,35.40
2023-02-28T12:59:45.031Z,34.20
2023-02-28T13:05:43.879Z,34.80
2023-02-28T13:08:43.273Z,33.20
2023-02-28T13:11:45.944Z,32.80
2023-02-28T13:18:29.095Z,35.00
2023-02-28T13:21:01.598Z,35.60
2023-02-28T13:23:48.182Z,40.50
2023-02-28T13:26:21.939Z,41.80
2023-02-28T13:28:56.622Z,41.80
2023-02-28T13:31:24.718Z,40.00
2023-02-28T13:34:01.428Z,39.10
2023-02-28T13:36:31.940Z,38.30
2023-02-28T13:39:05.325Z,36.40
2023-02-28T13:41:33.105Z,35.60
2023-02-28T13:44:25.823Z,38.90
2023-02-28T13:46:59.629Z,40.90
2023-02-28T13:49:49.552Z,41.10
2023-02-28T13:52:25.628Z,40.80
2023-02-28T13:54:57.327Z,41.20
2023-02-28T13:57:53.785Z,44.00
2023-02-28T14:00:32.653Z,47.20
2023-02-28T14:03:39.972Z,48.30
2023-02-28T14:06:20.231Z,47.90
2023-02-28T14:09:02.285Z,49.20
2023-02-28T14:11:47.068Z,49.70
2023-02-28T14:33:47.178Z,53.30
2023-02-28T14:36:35.902Z,54.00
2023-02-28T14:39:16.526Z,54.70
2023-02-28T14:41:45.822Z,54.70
2023-02-28T14:44:22.031Z,54.80
2023-02-28T14:47:07.480Z,55.50
2023-02-28T14:49:46.809Z,55.80
2023-02-28T14:52:33.671Z,56.10
2023-02-28T14:55:30.879Z,56.50
2023-02-28T14:58:10.756Z,56.40
2023-02-28T15:00:54.286Z,56.50
2023-02-28T15:03:37.805Z,57.00
2023-02-28T15:09:34.453Z,58.00
2023-02-28T15:33:21.090Z,60.90
2023-02-28T15:35:53.327Z,60.80
2023-02-28T15:38:30.493Z,60.90
2023-02-28T15:41:02.707Z,61.00
2023-02-28T15:43:32.055Z,61.40
2023-02-28T15:46:12.242Z,61.70
2023-02-28T15:48:45.865Z,62.00
2023-02-28T15:51:21.649Z,62.50
2023-02-28T15:54:02.924Z,62.40
2023-02-28T15:56:46.576Z,63.10
2023-02-28T15:59:25.774Z,63.70
2023-02-28T16:02:18.742Z,64.20
2023-02-28T16:05:02.105Z,63.90
2023-02-28T16:07:36.674Z,64.70
2023-02-28T16:10:05.945Z,65.20
2023-02-28T16:12:43.558Z,66.10
2023-02-28T16:15:42.785Z,66.70
2023-02-28T16:18:14.053Z,67.10
2023-02-28T16:20:49.879Z,67.30
2023-02-28T16:23:17.656Z,67.80
2023-02-28T16:25:52.359Z,68.10
2023-02-28T16:28:32.317Z,68.50
2023-02-28T16:31:17.454Z,68.50
2023-02-28T16:33:49.490Z,68.60
2023-02-28T16:36:23.210Z,69.00
2023-02-28T16:39:04.434Z,69.70
2023-02-28T16:41:38.570Z,69.10
2023-02-28T16:44:31.270Z,69.20
2023-02-28T16:47:04.819Z,68.90
2023-02-28T16:49:32.715Z,69.40
2023-02-28T16:52:00.653Z,69.60
2023-02-28T16:54:31.805Z,69.70
2023-02-28T16:57:02.813Z,69.80
2023-02-28T16:59:37.014Z,70.20
2023-02-28T17:02:15.463Z,70.00
2023-02-28T17:04:49.176Z,71.10
2023-02-28T17:07:21.977Z,70.80
2023-02-28T17:10:02.754Z,71.20
2023-02-28T17:12:36.789Z,71.10
2023-02-28T17:15:18.412Z,71.60
2023-02-28T17:17:49.880Z,72.20
2023-02-28T17:20:23.775Z,72.80
2023-02-28T17:22:56.049Z,75.00
2023-02-28T17:25:24.633Z,76.40
2023-02-28T17:27:52.772Z,76.50
2023-02-28T17:30:23.852Z,77.00
2023-02-28T17:32:58.042Z,77.80
2023-02-28T17:35:31.524Z,77.70
2023-02-28T17:37:59.450Z,77.80
2023-02-28T17:40:38.566Z,78.40
2023-02-28T17:43:16.001Z,78.70
2023-02-28T17:45:43.518Z,79.80
2023-02-28T17:48:16.992Z,80.00
2023-02-28T17:50:44.899Z,81.20
2023-02-28T17:53:14.987Z,81.60
2023-02-28T17:55:52.753Z,81.70
2023-02-28T17:58:35.839Z,81.80
2023-02-28T18:01:06.161Z,82.50
2023-02-28T18:03:34.700Z,83.30
2023-02-28T18:06:03.466Z,83.30
2023-02-28T18:08:32.233Z,84.00
2023-02-28T18:11:03.058Z,84.40
2023-02-28T18:13:32.203Z,85.00
2023-02-28T18:16:02.950Z,86.30
2023-02-28T18:18:30.783Z,87.30
2023-02-28T18:21:04.266Z,87.60
2023-02-28T18:23:39.798Z,88.20
2023-02-28T18:26:08.895Z,88.80
2023-02-28T18:28:37.261Z,88.80
2023-02-28T18:31:12.650Z,89.10
2023-02-28T18:33:51.435Z,89.50
2023-02-28T18:36:22.161Z,89.50
2023-02-28T18:38:50.717Z,89.20
2023-02-28T18:41:22.855Z,89.60
2023-02-28T18:43:57.018Z,89.50
2023-02-28T18:46:25.096Z,89.70
2023-02-28T18:48:52.682Z,90.30
2023-02-28T18:51:33.487Z,90.80
2023-02-28T18:54:08.052Z,91.00
2023-02-28T18:56:47.890Z,90.90
2023-02-28T18:59:18.982Z,91.00
2023-02-28T19:01:46.797Z,91.10
2023-02-28T19:04:17.384Z,91.40
2023-02-28T19:06:48.088Z,91.70
2023-02-28T19:09:18.637Z,92.00
2023-02-28T19:11:49.012Z,92.30
2023-02-28T19:14:17.033Z,92.70
2023-02-28T19:16:47.751Z,93.00
2023-02-28T19:19:15.390Z,93.30
2023-02-28T19:21:44.071Z,93.60
2023-02-28T19:24:12.564Z,93.40
2023-02-28T19:26:40.386Z,93.50
2023-02-28T19:29:11.052Z,93.50
2023-02-28T19:31:43.698Z,93.60
2023-02-28T19:34:17.630Z,93.60
2023-02-28T19:36:45.263Z,93.20
2023-02-28T19:39:20.202Z,93.00
2023-02-28T19:41:48.530Z,92.90
2023-02-28T19:44:18.003Z,92.90
2023-02-28T19:46:51.909Z,93.30
2023-02-28T19:49:27.811Z,93.30
2023-02-28T19:51:56.380Z,93.30
2023-02-28T19:54:32.136Z,93.30
2023-02-28T19:56:59.835Z,93.80
2023-02-28T19:59:38.119Z,93.40
2023-02-28T20:02:27.795Z,93.40
2023-02-28T20:05:01.232Z,94.00
2023-02-28T20:07:33.778Z,94.40
2023-02-28T20:10:02.135Z,94.70
2023-02-28T20:12:30.162Z,95.00
2023-02-28T20:15:00.830Z,95.30
2023-02-28T20:17:33.081Z,95.40
2023-02-28T20:20:04.364Z,95.40
2023-02-28T20:22:40.003Z,95.60
2023-02-28T20:25:08.270Z,95.40
2023-02-28T20:27:38.886Z,95.40
2023-02-28T20:30:07.115Z,95.60
2023-02-28T20:32:36.378Z,95.80
2023-02-28T20:35:11.892Z,95.40
2023-02-28T20:37:52.304Z,95.50
2023-02-28T20:40:22.798Z,95.50
2023-02-28T20:42:53.402Z,95.30
2023-02-28T20:45:27.298Z,95.60
2023-02-28T20:47:55.944Z,95.50
2023-02-28T20:50:24.614Z,95.80
2023-02-28T20:52:55.526Z,96.00
2023-02-28T20:55:23.206Z,95.80
2023-02-28T20:57:54.577Z,96.10
2023-02-28T21:00:23.088Z,96.00
2023-02-28T21:02:56.151Z,96.20
2023-02-28T21:05:32.728Z,96.20
2023-02-28T21:08:03.440Z,96.10
2023-02-28T21:10:40.057Z,96.30
2023-02-28T21:13:12.197Z,96.70
2023-02-28T21:15:39.948Z,97.00
2023-02-28T21:18:10.597Z,97.30
2023-02-28T21:20:52.184Z,97.60
2023-02-28T21:23:20.255Z,97.80
2023-02-28T21:25:48.110Z,97.50
2023-02-28T21:28:16.001Z,97.70
2023-02-28T21:30:48.109Z,97.60
2023-02-28T21:33:17.590Z,97.20
2023-02-28T21:35:45.551Z,97.10
2023-02-28T21:38:21.962Z,96.90
2023-02-28T21:41:04.642Z,96.90
2023-02-28T21:43:32.627Z,97.00
2023-02-28T21:46:09.410Z,97.30
2023-02-28T21:48:43.628Z,97.70
2023-02-28T21:51:18.619Z,97.60
2023-02-28T21:53:48.704Z,97.70
2023-02-28T21:56:23.049Z,97.20
2023-02-28T21:58:51.210Z,97.60
2023-02-28T22:01:21.954Z,97.40
2023-02-28T22:03:50.439Z,97.00
2023-02-28T22:06:25.466Z,97.60
2023-02-28T22:08:56.620Z,97.30
2023-02-28T22:11:25.326Z,97.40
2023-02-28T22:13:57.589Z,97.50
2023-02-28T22:16:29.549Z,95.20
2023-02-28T22:18:59.249Z,94.20
2023-02-28T22:21:27.377Z,93.70
2023-02-28T22:23:54.983Z,93.80
2023-02-28T22:26:33.472Z,93.00
2023-02-28T22:30:10.187Z,92.10
2023-02-28T22:32:38.001Z,91.50
2023-02-28T22:35:07.029Z,91.20
2023-02-28T22:37:34.672Z,90.90
2023-02-28T22:40:02.367Z,91.00
2023-02-28T22:42:34.307Z,90.80
2023-02-28T22:45:01.849Z,90.90
2023-02-28T22:47:29.589Z,91.20
2023-02-28T22:49:57.181Z,90.80
2023-02-28T22:52:24.635Z,91.00
2023-02-28T22:54:53.371Z,91.20
2023-02-28T22:57:23.267Z,91.70
2023-02-28T22:59:50.931Z,91.90
2023-02-28T23:02:18.641Z,91.90
2023-02-28T23:04:46.636Z,91.90
2023-02-28T23:07:14.522Z,92.20
2023-02-28T23:09:42.158Z,93.00
2023-02-28T23:12:09.704Z,93.00
2023-02-28T23:14:37.184Z,93.20
2023-02-28T23:17:05.950Z,93.50
2023-02-28T23:19:33.401Z,93.80
2023-02-28T23:22:02.417Z,94.50
2023-02-28T23:24:34.491Z,95.10
2023-02-28T23:27:04.911Z,95.40
2023-02-28T23:29:32.671Z,95.80
2023-02-28T23:32:00.251Z,96.00
2023-02-28T23:34:30.495Z,96.40
2023-02-28T23:37:00.472Z,96.70
2023-02-28T23:39:29.804Z,96.80
2023-02-28T23:41:57.586Z,97.20
2023-02-28T23:44:43.772Z,97.60
2023-02-28T23:47:13.872Z,97.70
2023-02-28T23:49:41.412Z,97.70
2023-02-28T23:52:09.048Z,97.60
2023-02-28T23:54:36.871Z,97.90
2023-02-28T23:57:04.937Z,97.80
2023-02-28T23:59:32.439Z,97.70
